Time;durP1;ratioP1;P1;durP2;ratioP2;P2;SDS_P1;SDS_P2;PMS_P1;PMS_P2;Temp;Humidity;BMP_temperature;BMP_pressure;BME280_temperature;BME280_humidity;BME280_pressure;Samples;Min_cycle;Max_cycle;Signal;HPM_P1;HPM_P2
2023/11/29 00:01:21;;;;;;;7.22;3.50;;;-3276.10;99.90;;;;;;5011356;28;20061;-74
2023/11/29 00:03:47;;;;;;;6.85;3.60;;;-3276.10;99.90;;;;;;5007845;28;20574;-74
2023/11/29 00:06:12;;;;;;;8.55;3.47;;;-3276.20;99.90;;;;;;5013111;28;20049;-74
2023/11/29 00:08:38;;;;;;;7.88;3.45;;;-3276.20;99.90;;;;;;5010198;28;20380;-74
2023/11/29 00:11:05;;;;;;;7.18;3.92;;;-3276.20;99.90;;;;;;5007845;28;20121;-74
2023/11/29 00:13:30;;;;;;;8.23;4.13;;;-3276.30;99.90;;;;;;5000945;28;20510;-74
2023/11/29 00:15:56;;;;;;;6.38;3.60;;;-3276.30;99.90;;;;;;5007821;28;20033;-75
2023/11/29 00:18:21;;;;;;;6.93;3.40;;;-3276.30;99.90;;;;;;5005274;28;20494;-74
2023/11/29 00:20:47;;;;;;;6.43;2.95;;;-3276.30;99.90;;;;;;5010723;28;20030;-74
2023/11/29 00:23:13;;;;;;;8.93;4.18;;;-3276.40;99.90;;;;;;5010784;28;20041;-74
2023/11/29 00:25:38;;;;;;;6.55;3.75;;;-3276.40;99.90;;;;;;5009742;28;20069;-74
2023/11/29 00:28:04;;;;;;;8.13;4.05;;;-3276.40;99.90;;;;;;5002928;28;20030;-74
2023/11/29 00:30:29;;;;;;;7.20;3.20;;;-3276.40;99.90;;;;;;5010592;28;20042;-75
2023/11/29 00:32:55;;;;;;;6.53;3.25;;;-3276.40;99.90;;;;;;5009988;28;20044;-74
2023/11/29 00:35:21;;;;;;;8.02;4.28;;;-3276.40;99.90;;;;;;5012577;28;20422;-74
2023/11/29 00:37:47;;;;;;;7.35;3.40;;;-3276.50;99.90;;;;;;5011400;28;20071;-75
2023/11/29 00:40:12;;;;;;;7.32;3.38;;;-3276.50;99.90;;;;;;5010874;28;20117;-74
2023/11/29 00:42:38;;;;;;;9.05;4.70;;;-3276.60;99.90;;;;;;5008995;28;20112;-75
2023/11/29 00:45:03;;;;;;;9.35;4.57;;;-3276.60;99.90;;;;;;5016861;28;20037;-75
2023/11/29 00:47:29;;;;;;;8.80;4.43;;;-3276.60;99.90;;;;;;5007046;28;20176;-75
2023/11/29 00:49:55;;;;;;;10.13;4.47;;;-3276.60;99.90;;;;;;5011187;28;20132;-75
2023/11/29 00:52:20;;;;;;;9.40;5.30;;;-3276.70;99.90;;;;;;5009940;28;20053;-75
2023/11/29 00:54:45;;;;;;;5.43;3.45;;;-3276.70;99.90;;;;;;5010138;28;20164;-74
2023/11/29 00:57:11;;;;;;;9.38;4.63;;;-3276.70;99.80;;;;;;5009353;28;20423;-74
2023/11/29 00:59:36;;;;;;;7.43;4.03;;;0.00;99.70;;;;;;5009588;28;20077;-74
2023/11/29 01:02:02;;;;;;;10.75;5.25;;;0.00;99.70;;;;;;5001001;28;20435;-75
2023/11/29 01:04:27;;;;;;;7.15;4.50;;;0.00;99.70;;;;;;5010411;28;20053;-74
2023/11/29 01:06:53;;;;;;;6.10;4.05;;;0.00;99.60;;;;;;5016411;28;20532;-74
2023/11/29 01:09:19;;;;;;;9.38;4.95;;;0.00;99.60;;;;;;5005981;28;20037;-74
2023/11/29 01:11:45;;;;;;;8.52;4.82;;;0.00;99.60;;;;;;5005130;28;20038;-74
2023/11/29 01:14:10;;;;;;;11.50;4.97;;;0.00;99.60;;;;;;5014861;28;20458;-74
2023/11/29 01:16:36;;;;;;;10.10;5.55;;;0.10;99.60;;;;;;5008008;28;20123;-75
2023/11/29 01:19:01;;;;;;;8.18;5.07;;;0.10;99.50;;;;;;5013373;28;20049;-74
2023/11/29 01:21:27;;;;;;;8.82;5.43;;;0.10;99.50;;;;;;5014116;28;20449;-74
2023/11/29 01:23:53;;;;;;;10.55;5.72;;;0.10;99.40;;;;;;5015629;28;20406;-74
2023/11/29 01:26:18;;;;;;;9.68;4.80;;;0.10;99.50;;;;;;5013522;28;20450;-75
2023/11/29 01:28:44;;;;;;;11.48;6.13;;;0.10;99.50;;;;;;5011953;28;20034;-74
2023/11/29 01:31:10;;;;;;;9.13;5.53;;;0.10;99.50;;;;;;5013154;28;20085;-75
2023/11/29 01:33:35;;;;;;;9.35;5.38;;;0.10;99.40;;;;;;5014737;28;20034;-74
2023/11/29 01:36:09;;;;;;;13.43;6.32;;;0.20;99.40;;;;;;5014494;28;20544;-74
2023/11/29 01:38:34;;;;;;;9.30;5.60;;;0.20;99.40;;;;;;5011764;28;20026;-75
2023/11/29 01:41:00;;;;;;;8.93;5.65;;;0.20;99.40;;;;;;5016042;28;20504;-75
2023/11/29 01:43:26;;;;;;;10.07;6.20;;;0.30;99.40;;;;;;5012897;28;20026;-75
2023/11/29 01:45:51;;;;;;;10.60;6.05;;;0.30;99.30;;;;;;5013335;28;20026;-74
2023/11/29 01:48:17;;;;;;;10.65;5.68;;;0.30;99.30;;;;;;5011858;28;20288;-74
2023/11/29 01:50:45;;;;;;;10.48;6.00;;;0.30;99.30;;;;;;5013622;28;20380;-74
2023/11/29 01:53:12;;;;;;;8.13;5.50;;;0.40;99.30;;;;;;5013391;28;20044;-75
2023/11/29 01:55:38;;;;;;;11.63;5.55;;;0.40;99.20;;;;;;5011936;28;20034;-75
2023/11/29 01:58:04;;;;;;;12.05;6.70;;;0.40;99.20;;;;;;5014138;28;20386;-74
2023/11/29 02:00:29;;;;;;;9.77;5.57;;;0.40;99.20;;;;;;5009605;28;20040;-75
2023/11/29 02:02:55;;;;;;;10.18;6.07;;;0.40;99.10;;;;;;5011154;28;20037;-74
2023/11/29 02:05:20;;;;;;;10.40;6.55;;;0.40;99.20;;;;;;5013542;28;20030;-75
2023/11/29 02:07:46;;;;;;;9.88;6.32;;;0.40;99.10;;;;;;5015612;28;20045;-75
2023/11/29 02:10:12;;;;;;;13.45;6.78;;;0.40;99.10;;;;;;5011681;28;20044;-74
2023/11/29 02:12:37;;;;;;;12.80;6.80;;;0.40;99.10;;;;;;5013251;28;20046;-75
2023/11/29 02:15:03;;;;;;;12.30;6.50;;;0.40;99.10;;;;;;5016161;28;20181;-75
2023/11/29 02:17:29;;;;;;;9.82;5.53;;;0.40;99.20;;;;;;5008842;28;20117;-75
2023/11/29 02:19:54;;;;;;;10.75;6.68;;;0.40;99.20;;;;;;5012594;28;20467;-75
2023/11/29 02:22:23;;;;;;;12.32;7.28;;;0.40;99.10;;;;;;5013553;28;20041;-75
2023/11/29 02:24:48;;;;;;;10.98;5.60;;;0.40;99.10;;;;;;5013132;28;20138;-74
2023/11/29 02:27:14;;;;;;;12.52;6.75;;;0.40;99.00;;;;;;5011844;28;20522;-75
2023/11/29 02:29:39;;;;;;;11.43;6.35;;;0.40;99.00;;;;;;5008132;28;20068;-74
2023/11/29 02:32:06;;;;;;;10.45;5.88;;;0.50;98.90;;;;;;5008737;28;20042;-74
2023/11/29 02:34:31;;;;;;;8.88;4.40;;;0.50;98.90;;;;;;5013227;28;20097;-75
2023/11/29 02:36:57;;;;;;;10.20;5.88;;;0.50;98.90;;;;;;5015461;28;20045;-75
2023/11/29 02:39:22;;;;;;;12.82;5.97;;;0.50;98.80;;;;;;5010762;28;20036;-75
2023/11/29 02:41:48;;;;;;;10.60;6.85;;;0.50;98.90;;;;;;5011213;28;20046;-75
2023/11/29 02:44:13;;;;;;;9.65;5.40;;;0.50;98.90;;;;;;5011417;28;20088;-75
2023/11/29 02:46:39;;;;;;;11.68;6.22;;;0.60;98.80;;;;;;5009280;28;20037;-75
2023/11/29 02:49:04;;;;;;;10.65;6.45;;;0.60;98.70;;;;;;5015217;28;20422;-75
2023/11/29 02:51:30;;;;;;;9.77;6.18;;;0.50;98.80;;;;;;5009876;28;20540;-76
2023/11/29 02:53:55;;;;;;;10.18;5.57;;;0.60;98.80;;;;;;5011231;28;20038;-75
2023/11/29 02:56:21;;;;;;;10.13;5.57;;;0.50;98.90;;;;;;5012384;28;20037;-75
2023/11/29 02:58:47;;;;;;;10.45;6.82;;;0.60;98.90;;;;;;5010687;28;20034;-75
2023/11/29 03:01:13;;;;;;;10.88;6.20;;;0.60;98.90;;;;;;5011781;28;20069;-76
2023/11/29 03:03:38;;;;;;;9.32;6.28;;;0.60;98.90;;;;;;5010709;28;20038;-75
2023/11/29 03:06:04;;;;;;;11.88;6.43;;;0.60;98.90;;;;;;5012390;28;20505;-75
2023/11/29 03:08:29;;;;;;;10.70;5.90;;;0.60;98.90;;;;;;5012170;28;20454;-75
2023/11/29 03:10:55;;;;;;;8.95;5.63;;;0.60;98.90;;;;;;5010909;28;20044;-76
2023/11/29 03:13:24;;;;;;;9.45;6.45;;;0.50;99.00;;;;;;5011394;28;20047;-75
2023/11/29 03:15:50;;;;;;;10.30;6.05;;;0.60;99.00;;;;;;5011325;28;20460;-75
2023/11/29 03:18:15;;;;;;;11.73;6.20;;;0.60;99.00;;;;;;5009783;28;20072;-75
2023/11/29 03:20:41;;;;;;;9.45;6.00;;;0.60;99.10;;;;;;5012138;28;20040;-75
2023/11/29 03:23:06;;;;;;;10.70;5.70;;;0.60;99.10;;;;;;5014394;28;20033;-75
2023/11/29 03:25:32;;;;;;;10.93;6.03;;;0.60;99.20;;;;;;5017361;28;20041;-75
2023/11/29 03:27:58;;;;;;;10.32;6.25;;;0.60;99.20;;;;;;5011461;28;20125;-76
2023/11/29 03:30:23;;;;;;;9.13;5.72;;;0.60;99.20;;;;;;5012452;28;20080;-76
2023/11/29 03:32:49;;;;;;;8.68;5.93;;;0.60;99.10;;;;;;5008187;28;20033;-76
2023/11/29 03:35:14;;;;;;;11.18;6.93;;;0.60;99.10;;;;;;5011948;28;20038;-76
2023/11/29 03:37:41;;;;;;;10.85;5.65;;;0.60;99.10;;;;;;5011723;28;20053;-76
2023/11/29 03:40:07;;;;;;;9.82;5.70;;;0.60;99.10;;;;;;5017637;28;20482;-76
2023/11/29 03:42:32;;;;;;;10.32;6.15;;;0.60;99.20;;;;;;5005581;28;20060;-76
2023/11/29 03:45:00;;;;;;;11.52;6.38;;;0.60;99.10;;;;;;5010198;28;20108;-75
2023/11/29 03:47:26;;;;;;;10.32;5.93;;;0.60;99.10;;;;;;5008863;28;20475;-75
2023/11/29 03:49:51;;;;;;;11.57;6.40;;;0.60;99.20;;;;;;5011296;28;20064;-75
2023/11/29 03:52:19;;;;;;;9.65;5.22;;;0.60;99.20;;;;;;5011152;28;20766;-76
2023/11/29 03:54:45;;;;;;;12.88;6.10;;;0.60;99.30;;;;;;5011227;28;20084;-75
2023/11/29 03:57:10;;;;;;;12.48;5.70;;;0.60;99.30;;;;;;5014401;28;20344;-75
2023/11/29 03:59:36;;;;;;;8.75;4.97;;;0.60;99.30;;;;;;5010808;28;20038;-75
2023/11/29 04:02:01;;;;;;;12.45;6.38;;;0.60;99.40;;;;;;5007470;28;20040;-75
2023/11/29 04:04:27;;;;;;;8.52;5.18;;;0.60;99.40;;;;;;5011369;28;20469;-75
2023/11/29 04:06:52;;;;;;;9.52;5.13;;;0.60;99.40;;;;;;5011105;28;20079;-75
2023/11/29 04:09:17;;;;;;;9.40;5.32;;;0.60;99.50;;;;;;5010257;28;20034;-75
2023/11/29 04:11:46;;;;;;;10.82;5.75;;;0.60;99.50;;;;;;5010673;28;20037;-75
2023/11/29 04:14:12;;;;;;;8.10;5.10;;;0.60;99.60;;;;;;5012337;28;20398;-75
2023/11/29 04:16:38;;;;;;;9.60;5.85;;;0.50;99.60;;;;;;5009286;28;20037;-75
2023/11/29 04:19:03;;;;;;;9.38;5.40;;;0.60;99.70;;;;;;5009974;28;20463;-75
2023/11/29 04:21:31;;;;;;;8.63;5.22;;;0.50;99.70;;;;;;5008020;28;20032;-76
2023/11/29 04:23:57;;;;;;;10.60;5.75;;;0.50;99.90;;;;;;5008802;28;20033;-75
2023/11/29 04:26:31;;;;;;;9.15;5.28;;;0.50;99.80;;;;;;5007109;28;20493;-75
2023/11/29 04:28:57;;;;;;;9.75;5.65;;;0.50;99.90;;;;;;5010746;28;20041;-75
2023/11/29 04:31:24;;;;;;;10.00;5.43;;;0.50;99.90;;;;;;5008698;28;20112;-76
2023/11/29 04:33:49;;;;;;;10.90;5.25;;;0.50;99.90;;;;;;5008379;28;20041;-75
2023/11/29 04:36:15;;;;;;;9.02;4.72;;;0.40;99.90;;;;;;5007502;28;20030;-75
2023/11/29 04:38:41;;;;;;;9.50;5.38;;;0.40;99.90;;;;;;5007747;28;20593;-75
2023/11/29 04:41:07;;;;;;;9.60;5.38;;;0.50;99.90;;;;;;5010452;28;20083;-75
2023/11/29 04:43:33;;;;;;;9.00;4.85;;;0.40;99.90;;;;;;5009388;28;20290;-75
2023/11/29 04:45:58;;;;;;;8.52;5.50;;;0.40;99.90;;;;;;5008449;28;20046;-76
2023/11/29 04:48:24;;;;;;;9.85;5.88;;;0.40;99.90;;;;;;5008009;28;20034;-75
2023/11/29 04:50:49;;;;;;;9.13;5.63;;;0.40;99.90;;;;;;5012850;28;20054;-75
2023/11/29 04:53:15;;;;;;;8.38;5.25;;;0.40;99.90;;;;;;5017288;28;20532;-76
2023/11/29 04:55:40;;;;;;;10.55;5.97;;;0.40;99.90;;;;;;5011017;28;20058;-76
2023/11/29 04:58:06;;;;;;;11.30;6.78;;;0.40;99.90;;;;;;5011670;28;20494;-76
2023/11/29 05:00:31;;;;;;;10.25;5.22;;;0.40;99.90;;;;;;5010637;28;20046;-76
2023/11/29 05:02:57;;;;;;;10.73;6.32;;;0.40;99.90;;;;;;5007771;28;20048;-76
2023/11/29 05:05:23;;;;;;;8.68;5.72;;;0.40;99.90;;;;;;5015140;28;20414;-76
2023/11/29 05:07:48;;;;;;;8.65;5.68;;;0.40;99.90;;;;;;5015009;28;20109;-76
2023/11/29 05:10:14;;;;;;;9.77;5.45;;;0.40;99.90;;;;;;5013560;28;20088;-75
2023/11/29 05:12:40;;;;;;;10.40;6.18;;;0.40;99.90;;;;;;5020086;28;20049;-76
2023/11/29 05:15:07;;;;;;;11.13;6.22;;;0.40;99.90;;;;;;5009850;28;20025;-76
2023/11/29 05:17:33;;;;;;;9.70;5.38;;;0.40;99.90;;;;;;5010966;28;20021;-76
2023/11/29 05:19:58;;;;;;;10.43;5.78;;;0.40;99.90;;;;;;5013858;28;20477;-76
2023/11/29 05:22:24;;;;;;;10.43;6.57;;;0.40;99.90;;;;;;5014059;28;20533;-75
2023/11/29 05:24:49;;;;;;;10.27;6.25;;;0.40;99.90;;;;;;5008914;28;20049;-76
2023/11/29 05:27:15;;;;;;;12.45;5.32;;;0.40;99.90;;;;;;5013522;28;20347;-78
2023/11/29 05:29:41;;;;;;;10.98;6.68;;;0.40;99.90;;;;;;5015286;28;20113;-76
2023/11/29 05:32:07;;;;;;;9.65;6.57;;;0.40;99.90;;;;;;5010049;28;20125;-77
2023/11/29 05:34:33;;;;;;;11.45;6.85;;;0.50;99.90;;;;;;5012530;28;20080;-76
2023/11/29 05:36:58;;;;;;;12.40;6.07;;;0.40;99.90;;;;;;5013355;28;20665;-77
2023/11/29 05:39:24;;;;;;;14.68;7.55;;;0.50;99.90;;;;;;5016829;28;20030;-78
2023/11/29 05:41:49;;;;;;;11.30;6.32;;;0.50;99.90;;;;;;5008773;28;20360;-77
2023/11/29 05:44:15;;;;;;;12.45;7.65;;;0.50;99.90;;;;;;5012330;28;20046;-76
2023/11/29 05:46:41;;;;;;;12.30;7.60;;;0.50;99.90;;;;;;5019228;28;20034;-76
2023/11/29 05:49:06;;;;;;;12.25;6.63;;;0.50;99.90;;;;;;5011506;28;20022;-77
2023/11/29 05:51:32;;;;;;;12.30;7.30;;;0.50;99.90;;;;;;5009894;28;20128;-77
2023/11/29 05:53:57;;;;;;;12.40;7.05;;;0.50;99.90;;;;;;5013967;28;20038;-77
2023/11/29 05:56:23;;;;;;;12.05;6.45;;;0.50;99.90;;;;;;5018063;28;20133;-77
2023/11/29 05:58:49;;;;;;;13.02;6.40;;;0.50;99.90;;;;;;5018683;28;20030;-77
2023/11/29 06:01:16;;;;;;;11.82;6.90;;;0.50;99.90;;;;;;5003860;28;20106;-76
2023/11/29 06:03:42;;;;;;;11.48;6.43;;;0.50;99.90;;;;;;5011015;28;20112;-77
2023/11/29 06:06:08;;;;;;;11.93;6.88;;;0.50;99.90;;;;;;5013287;28;20034;-77
2023/11/29 06:08:34;;;;;;;12.52;7.22;;;0.50;99.90;;;;;;5012616;28;20042;-76
2023/11/29 06:10:59;;;;;;;13.57;7.28;;;0.50;99.90;;;;;;5012654;28;20481;-77
2023/11/29 06:13:25;;;;;;;11.20;6.47;;;0.60;99.90;;;;;;5017391;28;20103;-77
2023/11/29 06:15:51;;;;;;;14.05;7.32;;;0.50;99.90;;;;;;5005504;28;20100;-76
2023/11/29 06:18:18;;;;;;;12.15;6.68;;;0.50;99.90;;;;;;5006098;28;20454;-76
2023/11/29 06:20:44;;;;;;;13.32;7.13;;;0.50;99.90;;;;;;5012238;28;20482;-76
2023/11/29 06:23:09;;;;;;;12.10;6.82;;;0.50;99.90;;;;;;5011394;28;20076;-77
2023/11/29 06:25:35;;;;;;;14.43;7.55;;;0.50;99.90;;;;;;5009217;28;20036;-74
2023/11/29 06:28:01;;;;;;;12.88;7.03;;;0.50;99.90;;;;;;5008420;28;20041;-77
2023/11/29 06:30:26;;;;;;;8.80;6.05;;;0.50;99.90;;;;;;5028773;28;20093;-77
2023/11/29 06:32:52;;;;;;;14.48;7.40;;;0.60;99.90;;;;;;5008807;28;20470;-77
2023/11/29 06:35:18;;;;;;;13.50;6.80;;;0.50;99.90;;;;;;5012171;28;20069;-77
2023/11/29 06:37:47;;;;;;;11.82;6.28;;;0.50;99.90;;;;;;5012958;28;20045;-77
2023/11/29 06:40:16;;;;;;;12.18;6.55;;;0.50;99.90;;;;;;5012452;28;20057;-77
2023/11/29 06:42:42;;;;;;;11.48;6.35;;;0.60;99.90;;;;;;5011848;28;20070;-77
2023/11/29 06:45:11;;;;;;;10.60;6.50;;;0.50;99.90;;;;;;5012059;28;20121;-76
2023/11/29 06:47:37;;;;;;;11.80;6.75;;;0.50;99.90;;;;;;5009627;28;20081;-75
2023/11/29 06:50:06;;;;;;;11.15;6.68;;;0.60;99.90;;;;;;5012466;28;20137;-77
2023/11/29 06:52:32;;;;;;;11.40;6.13;;;0.60;99.90;;;;;;5011614;28;20117;-78
2023/11/29 06:54:58;;;;;;;8.82;5.47;;;0.50;99.90;;;;;;5020391;28;20117;-76
2023/11/29 06:57:24;;;;;;;11.18;6.18;;;0.50;99.90;;;;;;5015029;28;20070;-77
2023/11/29 06:59:49;;;;;;;10.80;6.40;;;0.50;99.90;;;;;;5012723;28;20065;-77
2023/11/29 07:02:15;;;;;;;11.80;6.57;;;0.60;99.90;;;;;;5003318;28;20026;-77
2023/11/29 07:04:44;;;;;;;10.90;6.85;;;0.60;99.90;;;;;;5012248;28;20022;-77
2023/11/29 07:07:09;;;;;;;11.43;6.28;;;0.60;99.90;;;;;;5007074;28;20050;-78
2023/11/29 07:09:35;;;;;;;12.77;6.63;;;0.60;99.90;;;;;;5012152;28;20034;-77
2023/11/29 07:12:01;;;;;;;11.93;6.93;;;0.60;99.90;;;;;;5011456;28;20080;-78
2023/11/29 07:14:26;;;;;;;13.10;6.88;;;0.60;99.90;;;;;;5012317;28;20034;-78
2023/11/29 07:16:52;;;;;;;11.43;6.70;;;0.60;99.90;;;;;;5008582;28;20037;-76
2023/11/29 07:19:18;;;;;;;11.23;6.22;;;0.60;99.90;;;;;;5011405;28;20037;-76
2023/11/29 07:21:44;;;;;;;9.43;5.60;;;0.60;99.90;;;;;;5012816;28;20076;-78
2023/11/29 07:24:09;;;;;;;11.10;6.65;;;0.60;99.90;;;;;;5012172;28;20080;-78
2023/11/29 07:26:35;;;;;;;12.40;6.50;;;0.60;99.90;;;;;;5011621;28;20034;-77
2023/11/29 07:29:00;;;;;;;10.90;6.70;;;0.60;99.90;;;;;;5010373;28;20038;-78
2023/11/29 07:31:25;;;;;;;10.07;5.88;;;0.60;99.90;;;;;;5010728;28;20108;-77
2023/11/29 07:33:51;;;;;;;11.23;6.15;;;0.60;99.90;;;;;;5009067;28;20022;-76
2023/11/29 07:36:17;;;;;;;11.27;6.38;;;0.60;99.90;;;;;;5010549;28;20041;-77
2023/11/29 07:38:44;;;;;;;11.32;5.80;;;0.60;99.90;;;;;;5016084;28;20033;-77
2023/11/29 07:41:10;;;;;;;9.95;6.38;;;0.60;99.90;;;;;;5011303;28;20358;-78
2023/11/29 07:43:35;;;;;;;12.63;6.40;;;0.60;99.90;;;;;;5011040;28;20033;-77
2023/11/29 07:46:01;;;;;;;9.35;5.40;;;0.60;99.90;;;;;;5011473;28;20041;-76
2023/11/29 07:48:26;;;;;;;11.60;6.80;;;0.70;99.90;;;;;;5009158;28;20530;-78
2023/11/29 07:50:54;;;;;;;12.73;7.07;;;0.70;99.90;;;;;;5009266;28;20042;-78
2023/11/29 07:53:20;;;;;;;11.85;6.20;;;0.70;99.90;;;;;;5012846;28;20037;-77
2023/11/29 07:55:45;;;;;;;12.57;7.15;;;0.70;99.90;;;;;;5011233;28;20036;-78
2023/11/29 07:58:11;;;;;;;9.90;6.15;;;0.70;99.90;;;;;;5011133;28;20107;-78
2023/11/29 08:00:36;;;;;;;10.20;5.60;;;0.70;99.90;;;;;;5011870;28;20021;-77
2023/11/29 08:03:02;;;;;;;10.57;6.30;;;0.70;99.90;;;;;;5003593;28;20084;-78
2023/11/29 08:05:28;;;;;;;11.75;5.90;;;0.70;99.90;;;;;;5009887;28;20501;-78
2023/11/29 08:07:55;;;;;;;10.70;6.65;;;0.70;99.90;;;;;;5010915;28;20376;-77
2023/11/29 08:10:22;;;;;;;11.10;6.50;;;0.70;99.90;;;;;;5010923;28;20470;-77
2023/11/29 08:12:47;;;;;;;11.60;6.28;;;0.80;99.90;;;;;;5010926;28;20034;-78
2023/11/29 08:15:13;;;;;;;9.57;5.78;;;0.80;99.90;;;;;;5010818;28;20037;-78
2023/11/29 08:17:38;;;;;;;12.05;7.10;;;0.70;99.90;;;;;;5006322;28;20117;-78
2023/11/29 08:20:06;;;;;;;11.38;6.28;;;0.80;99.90;;;;;;5009848;28;20061;-78
2023/11/29 08:22:32;;;;;;;12.93;6.50;;;0.80;99.90;;;;;;5006729;28;20038;-78
2023/11/29 08:24:59;;;;;;;11.15;6.50;;;0.80;99.90;;;;;;5006963;28;20022;-78
2023/11/29 08:27:24;;;;;;;10.38;6.15;;;0.80;99.90;;;;;;5010372;28;20038;-78
2023/11/29 08:29:51;;;;;;;10.35;5.72;;;0.80;99.90;;;;;;5010897;28;20163;-78
2023/11/29 08:32:17;;;;;;;12.65;6.55;;;0.80;99.90;;;;;;5005200;28;20045;-78
2023/11/29 08:34:42;;;;;;;11.18;6.05;;;0.80;99.90;;;;;;5011094;28;20033;-78
2023/11/29 08:37:08;;;;;;;10.32;5.95;;;0.90;99.90;;;;;;5011722;28;20076;-78
2023/11/29 08:39:34;;;;;;;11.85;6.28;;;0.90;99.90;;;;;;5011946;28;20026;-77
2023/11/29 08:41:59;;;;;;;9.82;5.32;;;0.90;99.90;;;;;;5010099;28;20033;-77
2023/11/29 08:44:25;;;;;;;10.63;6.22;;;0.90;99.90;;;;;;5008790;28;20042;-78
2023/11/29 08:46:50;;;;;;;10.30;4.93;;;0.90;99.90;;;;;;5008347;28;20059;-79
2023/11/29 08:49:16;;;;;;;13.75;6.75;;;0.90;99.90;;;;;;5009096;28;20034;-79
2023/11/29 08:51:42;;;;;;;11.07;6.28;;;1.00;99.90;;;;;;5012147;28;20096;-79
2023/11/29 08:54:08;;;;;;;9.68;5.95;;;1.00;99.90;;;;;;5012397;28;20038;-78
2023/11/29 08:56:33;;;;;;;13.52;6.18;;;1.00;99.90;;;;;;5012647;28;20030;-78
2023/11/29 08:59:00;;;;;;;12.30;6.35;;;1.00;99.90;;;;;;5009931;28;20026;-78
2023/11/29 09:01:26;;;;;;;11.32;6.10;;;1.00;99.90;;;;;;5012148;28;20135;-78
2023/11/29 09:03:52;;;;;;;13.23;6.35;;;1.00;99.90;;;;;;5009373;28;20462;-77
2023/11/29 09:06:18;;;;;;;10.88;5.82;;;1.00;99.90;;;;;;5009974;28;20038;-78
2023/11/29 09:08:43;;;;;;;12.48;6.47;;;1.00;99.90;;;;;;5010394;28;20057;-78
2023/11/29 09:11:09;;;;;;;11.05;6.43;;;1.00;99.90;;;;;;5013155;28;20474;-78
2023/11/29 09:13:35;;;;;;;12.57;5.60;;;1.00;99.90;;;;;;5009652;28;20487;-78
2023/11/29 09:16:01;;;;;;;10.65;6.35;;;0.90;99.90;;;;;;5009480;28;20040;-78
2023/11/29 09:18:26;;;;;;;10.38;6.10;;;1.00;99.90;;;;;;5008690;28;20080;-78
2023/11/29 09:20:52;;;;;;;10.35;5.88;;;1.00;99.90;;;;;;5006499;28;20036;-79
2023/11/29 09:23:17;;;;;;;10.82;5.97;;;1.00;99.90;;;;;;5010299;28;20113;-78
2023/11/29 09:25:43;;;;;;;11.52;6.50;;;1.10;99.90;;;;;;5004886;28;20026;-79
2023/11/29 09:28:13;;;;;;;11.57;6.63;;;1.10;99.90;;;;;;5007524;28;20511;-78
2023/11/29 09:30:40;;;;;;;13.25;7.15;;;1.10;99.90;;;;;;5009383;28;20026;-78
2023/11/29 09:33:06;;;;;;;10.82;5.65;;;1.10;99.90;;;;;;5006861;28;20388;-78
2023/11/29 09:35:32;;;;;;;11.82;6.15;;;1.20;99.90;;;;;;5010147;28;20046;-78
2023/11/29 09:37:57;;;;;;;11.77;5.78;;;1.20;99.90;;;;;;5016283;28;20052;-79
2023/11/29 09:40:24;;;;;;;11.15;6.03;;;1.20;99.90;;;;;;5014072;28;20030;-79
2023/11/29 09:42:52;;;;;;;11.27;6.63;;;1.20;99.90;;;;;;5013109;28;20375;-78
2023/11/29 09:45:23;;;;;;;11.23;5.90;;;1.20;99.90;;;;;;5013883;28;20061;-79
2023/11/29 09:47:49;;;;;;;12.52;6.72;;;1.10;99.90;;;;;;5009747;28;20030;-79
2023/11/29 09:50:19;;;;;;;10.15;4.88;;;1.10;99.90;;;;;;5012620;28;20137;-77
2023/11/29 09:52:46;;;;;;;12.07;6.13;;;1.10;99.90;;;;;;5013818;28;20035;-79
2023/11/29 09:55:12;;;;;;;10.82;5.53;;;1.10;99.90;;;;;;5013537;28;20090;-79
2023/11/29 09:57:37;;;;;;;9.38;5.97;;;1.10;99.90;;;;;;5013916;28;20403;-79
2023/11/29 10:00:09;;;;;;;9.43;5.53;;;1.10;99.90;;;;;;5013614;28;20038;-79
2023/11/29 10:02:35;;;;;;;11.32;6.47;;;1.10;99.90;;;;;;5009931;28;20421;-79
2023/11/29 10:05:01;;;;;;;19.05;10.65;;;1.10;99.90;;;;;;5015341;28;20120;-79
2023/11/29 10:07:27;;;;;;;23.90;13.85;;;1.10;99.90;;;;;;5013427;28;20106;-77
2023/11/29 10:09:52;;;;;;;27.83;12.80;;;1.10;99.90;;;;;;5012452;28;20121;-78
2023/11/29 10:12:18;;;;;;;23.77;10.23;;;1.10;99.90;;;;;;5016198;28;20084;-79
2023/11/29 10:14:44;;;;;;;36.38;16.10;;;1.10;99.90;;;;;;5009624;28;20046;-80
2023/11/29 10:17:14;;;;;;;30.13;13.32;;;1.10;99.90;;;;;;5006068;28;20057;-77
2023/11/29 10:19:40;;;;;;;27.00;12.02;;;1.10;99.90;;;;;;5010890;28;20053;-78
2023/11/29 10:22:06;;;;;;;30.73;14.27;;;1.10;99.90;;;;;;5013193;28;20038;-78
2023/11/29 10:24:32;;;;;;;24.80;11.30;;;1.00;99.90;;;;;;5009755;28;20022;-76
2023/11/29 10:26:58;;;;;;;30.05;14.07;;;1.10;99.90;;;;;;5010897;28;20561;-77
2023/11/29 10:29:23;;;;;;;19.45;10.50;;;1.10;99.90;;;;;;5013299;28;20064;-77
2023/11/29 10:31:51;;;;;;;13.73;8.23;;;1.10;99.90;;;;;;5008008;28;20030;-77
2023/11/29 10:34:18;;;;;;;16.33;9.77;;;1.10;99.90;;;;;;5012662;28;20470;-78
2023/11/29 10:36:45;;;;;;;13.38;7.57;;;1.10;99.90;;;;;;5011523;28;20446;-78
2023/11/29 10:39:16;;;;;;;9.73;6.07;;;1.10;99.90;;;;;;5008578;28;20104;-77
2023/11/29 10:41:51;;;;;;;11.40;6.32;;;1.10;99.90;;;;;;5008952;28;20038;-76
2023/11/29 10:44:21;;;;;;;10.95;6.10;;;1.10;99.90;;;;;;5009998;28;20100;-74
2023/11/29 10:46:46;;;;;;;10.88;5.97;;;1.10;99.90;;;;;;5008853;28;20177;-76
2023/11/29 10:49:16;;;;;;;11.48;6.80;;;1.10;99.90;;;;;;5012054;28;20533;-77
2023/11/29 10:51:45;;;;;;;13.27;7.68;;;1.20;99.90;;;;;;5015395;28;20037;-76
2023/11/29 10:54:12;;;;;;;11.30;6.50;;;1.10;99.90;;;;;;5012550;28;20112;-76
2023/11/29 10:56:40;;;;;;;10.82;6.53;;;1.20;99.90;;;;;;5011080;28;20034;-76
2023/11/29 10:59:18;;;;;;;10.63;6.75;;;1.20;99.90;;;;;;5020469;28;20407;-78
2023/11/29 11:01:45;;;;;;;9.98;5.35;;;1.20;99.90;;;;;;5006538;28;20107;-75
2023/11/29 11:04:10;;;;;;;10.18;5.82;;;1.20;99.90;;;;;;5010330;28;20104;-77
2023/11/29 11:06:40;;;;;;;9.65;5.00;;;1.30;99.90;;;;;;5008235;28;20037;-77
2023/11/29 11:09:28;;;;;;;9.48;5.32;;;1.30;99.90;;;;;;5005900;28;20105;-77
2023/11/29 11:11:54;;;;;;;8.95;5.25;;;1.30;99.90;;;;;;5008555;28;20030;-78
2023/11/29 11:14:31;;;;;;;9.68;5.05;;;1.40;99.90;;;;;;5005936;28;20059;-78
2023/11/29 11:17:07;;;;;;;8.93;5.32;;;1.40;99.90;;;;;;5005712;28;20036;-77
2023/11/29 11:19:39;;;;;;;10.40;5.78;;;1.40;99.90;;;;;;5009990;28;20038;-77
2023/11/29 11:22:15;;;;;;;9.73;5.60;;;1.40;99.90;;;;;;5007621;28;20045;-77
2023/11/29 11:25:03;;;;;;;10.07;5.43;;;1.40;99.90;;;;;;5013931;28;20025;-78
2023/11/29 11:27:46;;;;;;;9.02;4.93;;;1.40;99.90;;;;;;5013372;28;20022;-78
2023/11/29 11:30:14;;;;;;;9.07;4.97;;;1.30;99.90;;;;;;5011344;28;20042;-78
2023/11/29 11:32:40;;;;;;;9.15;5.25;;;1.30;99.90;;;;;;5008854;28;20026;-78
2023/11/29 11:35:24;;;;;;;9.07;4.82;;;1.30;99.90;;;;;;5010301;28;20450;-78
2023/11/29 11:37:55;;;;;;;8.57;5.13;;;1.20;99.90;;;;;;5007903;28;20371;-79
2023/11/29 11:40:23;;;;;;;;;;;1.30;99.90;;;;;;5006130;28;20061;-78
2023/11/29 11:42:48;;;;;;;7.43;4.13;;;1.20;99.90;;;;;;5005299;28;19948;-80
2023/11/29 11:45:15;;;;;;;9.05;5.35;;;1.20;99.90;;;;;;5003869;28;20064;-79
2023/11/29 11:47:44;;;;;;;9.52;5.05;;;1.10;99.90;;;;;;4996662;28;20052;-80
2023/11/29 11:50:11;;;;;;;9.00;4.80;;;1.10;99.90;;;;;;5007205;28;20049;-79
2023/11/29 11:52:37;;;;;;;10.02;5.28;;;1.10;99.90;;;;;;5011157;28;20069;-79
2023/11/29 11:55:03;;;;;;;10.32;6.07;;;1.20;99.90;;;;;;5007257;28;20120;-78
2023/11/29 11:57:33;;;;;;;8.98;4.60;;;1.10;99.90;;;;;;5010671;28;20121;-79
2023/11/29 11:59:59;;;;;;;9.32;4.75;;;1.10;99.90;;;;;;5007572;28;20108;-80
2023/11/29 12:02:26;;;;;;;8.45;4.82;;;1.10;99.90;;;;;;5005670;28;20025;-79
2023/11/29 12:04:53;;;;;;;10.35;5.72;;;1.10;99.90;;;;;;5012430;28;20030;-79
2023/11/29 12:07:20;;;;;;;10.23;5.95;;;1.00;99.90;;;;;;5011371;28;20049;-79
2023/11/29 12:09:46;;;;;;;9.27;5.43;;;1.00;99.90;;;;;;5008260;28;20026;-79
2023/11/29 12:12:17;;;;;;;10.30;5.72;;;1.00;99.90;;;;;;5011144;28;20037;-80
2023/11/29 12:14:44;;;;;;;9.27;5.50;;;1.00;99.90;;;;;;5011516;28;20097;-79
2023/11/29 12:17:11;;;;;;;9.57;5.28;;;0.90;99.90;;;;;;5007742;28;20030;-80
2023/11/29 12:19:37;;;;;;;11.40;6.60;;;0.80;99.90;;;;;;5009853;28;20025;-76
2023/11/29 12:22:03;;;;;;;10.23;5.97;;;0.80;99.90;;;;;;5011036;28;20485;-80
2023/11/29 12:24:38;;;;;;;12.35;6.25;;;0.80;99.90;;;;;;5002643;28;20060;-76
2023/11/29 12:27:07;;;;;;;9.82;5.80;;;0.70;99.90;;;;;;5003902;28;20030;-79
2023/11/29 12:29:36;;;;;;;12.52;7.10;;;0.70;99.90;;;;;;5005390;28;20117;-76
2023/11/29 12:32:06;;;;;;;11.38;6.68;;;0.70;99.90;;;;;;5005081;28;20100;-78
2023/11/29 12:34:35;;;;;;;10.23;5.60;;;0.70;99.90;;;;;;5022709;28;20037;-78
2023/11/29 12:37:01;;;;;;;9.18;5.07;;;0.70;99.90;;;;;;5005562;28;20025;-79
2023/11/29 12:39:27;;;;;;;8.68;4.53;;;0.70;99.90;;;;;;5006366;28;20378;-77
2023/11/29 12:41:53;;;;;;;7.00;3.67;;;0.70;99.90;;;;;;5006870;28;20033;-77
2023/11/29 12:44:19;;;;;;;7.85;4.45;;;0.70;99.90;;;;;;5011028;28;20033;-78